sensor_id;sensor_type;location;lat;lon;timestamp;P1;durP1;ratioP1;P2;durP2;ratioP2
69985;SDS011;57328;52.054;5.294;2022-11-23T00:01:23;14.77;;;6.63;;
69985;SDS011;57328;52.054;5.294;2022-11-23T00:03:51;16.75;;;6.78;;
69985;SDS011;57328;52.054;5.294;2022-11-23T00:06:20;16.75;;;7.07;;
69985;SDS011;57328;52.054;5.294;2022-11-23T00:08:47;15.82;;;7.55;;
69985;SDS011;57328;52.054;5.294;2022-11-23T00:11:15;15.65;;;6.47;;
69985;SDS011;57328;52.054;5.294;2022-11-23T00:13:42;17.83;;;7.57;;
69985;SDS011;57328;52.054;5.294;2022-11-23T00:16:17;18.38;;;7.32;;
69985;SDS011;57328;52.054;5.294;2022-11-23T00:18:44;22.05;;;7.50;;
69985;SDS011;57328;52.054;5.294;2022-11-23T00:21:13;16.30;;;6.43;;
69985;SDS011;57328;52.054;5.294;2022-11-23T00:26:08;19.17;;;7.20;;
69985;SDS011;57328;52.054;5.294;2022-11-23T00:28:35;17.00;;;7.35;;
69985;SDS011;57328;52.054;5.294;2022-11-23T00:31:12;15.10;;;7.63;;
69985;SDS011;57328;52.054;5.294;2022-11-23T00:33:39;14.80;;;6.72;;
69985;SDS011;57328;52.054;5.294;2022-11-23T00:36:11;14.73;;;6.32;;
69985;SDS011;57328;52.054;5.294;2022-11-23T00:38:39;16.80;;;7.00;;
69985;SDS011;57328;52.054;5.294;2022-11-23T00:41:07;19.55;;;6.88;;
69985;SDS011;57328;52.054;5.294;2022-11-23T00:43:35;13.95;;;5.43;;
69985;SDS011;57328;52.054;5.294;2022-11-23T00:48:38;14.98;;;6.00;;
69985;SDS011;57328;52.054;5.294;2022-11-23T00:51:06;12.98;;;6.18;;
69985;SDS011;57328;52.054;5.294;2022-11-23T00:53:34;14.77;;;5.68;;
69985;SDS011;57328;52.054;5.294;2022-11-23T00:56:02;18.77;;;6.88;;
69985;SDS011;57328;52.054;5.294;2022-11-23T00:58:29;19.67;;;7.45;;
69985;SDS011;57328;52.054;5.294;2022-11-23T01:01:00;15.77;;;6.82;;
69985;SDS011;57328;52.054;5.294;2022-11-23T01:03:28;18.25;;;7.05;;
69985;SDS011;57328;52.054;5.294;2022-11-23T01:05:55;13.68;;;6.00;;
69985;SDS011;57328;52.054;5.294;2022-11-23T01:08:27;15.77;;;6.90;;
69985;SDS011;57328;52.054;5.294;2022-11-23T01:10:57;18.98;;;6.72;;
69985;SDS011;57328;52.054;5.294;2022-11-23T01:13:25;17.65;;;5.97;;
69985;SDS011;57328;52.054;5.294;2022-11-23T01:15:52;15.02;;;6.15;;
69985;SDS011;57328;52.054;5.294;2022-11-23T01:18:19;17.65;;;6.80;;
69985;SDS011;57328;52.054;5.294;2022-11-23T01:20:46;13.60;;;6.38;;
69985;SDS011;57328;52.054;5.294;2022-11-23T01:23:13;17.98;;;6.75;;
69985;SDS011;57328;52.054;5.294;2022-11-23T01:25:41;16.35;;;5.88;;
69985;SDS011;57328;52.054;5.294;2022-11-23T01:28:08;18.88;;;6.00;;
69985;SDS011;57328;52.054;5.294;2022-11-23T01:30:35;18.83;;;6.65;;
69985;SDS011;57328;52.054;5.294;2022-11-23T01:33:02;15.38;;;5.93;;
69985;SDS011;57328;52.054;5.294;2022-11-23T01:35:29;16.35;;;6.60;;
69985;SDS011;57328;52.054;5.294;2022-11-23T01:37:56;13.40;;;5.75;;
69985;SDS011;57328;52.054;5.294;2022-11-23T01:40:24;14.68;;;5.47;;
69985;SDS011;57328;52.054;5.294;2022-11-23T01:42:52;16.38;;;6.22;;
69985;SDS011;57328;52.054;5.294;2022-11-23T01:45:28;14.55;;;5.18;;
69985;SDS011;57328;52.054;5.294;2022-11-23T01:47:57;13.48;;;5.07;;
69985;SDS011;57328;52.054;5.294;2022-11-23T01:50:24;10.52;;;4.80;;
69985;SDS011;57328;52.054;5.294;2022-11-23T01:52:52;14.77;;;5.65;;
69985;SDS011;57328;52.054;5.294;2022-11-23T01:55:19;13.40;;;5.53;;
69985;SDS011;57328;52.054;5.294;2022-11-23T01:57:46;14.98;;;5.72;;
69985;SDS011;57328;52.054;5.294;2022-11-23T02:00:14;16.50;;;5.57;;
69985;SDS011;57328;52.054;5.294;2022-11-23T02:02:44;13.40;;;5.40;;
69985;SDS011;57328;52.054;5.294;2022-11-23T02:05:13;11.27;;;5.15;;
69985;SDS011;57328;52.054;5.294;2022-11-23T02:07:41;14.63;;;5.68;;
69985;SDS011;57328;52.054;5.294;2022-11-23T02:10:08;14.40;;;5.95;;
69985;SDS011;57328;52.054;5.294;2022-11-23T02:12:36;15.52;;;5.63;;
69985;SDS011;57328;52.054;5.294;2022-11-23T02:15:03;15.55;;;5.47;;
69985;SDS011;57328;52.054;5.294;2022-11-23T02:17:32;13.30;;;4.20;;
69985;SDS011;57328;52.054;5.294;2022-11-23T02:22:38;12.85;;;5.15;;
69985;SDS011;57328;52.054;5.294;2022-11-23T02:25:08;14.18;;;4.03;;
69985;SDS011;57328;52.054;5.294;2022-11-23T02:27:37;9.57;;;3.80;;
69985;SDS011;57328;52.054;5.294;2022-11-23T02:30:11;15.13;;;4.35;;
69985;SDS011;57328;52.054;5.294;2022-11-23T02:32:39;13.00;;;3.83;;
69985;SDS011;57328;52.054;5.294;2022-11-23T02:35:07;11.60;;;4.38;;
69985;SDS011;57328;52.054;5.294;2022-11-23T02:37:35;13.63;;;4.72;;
69985;SDS011;57328;52.054;5.294;2022-11-23T02:40:03;11.13;;;3.58;;
69985;SDS011;57328;52.054;5.294;2022-11-23T02:42:35;11.45;;;4.93;;
69985;SDS011;57328;52.054;5.294;2022-11-23T02:45:08;16.33;;;5.47;;
69985;SDS011;57328;52.054;5.294;2022-11-23T02:47:41;15.90;;;5.60;;
69985;SDS011;57328;52.054;5.294;2022-11-23T02:50:08;18.58;;;4.68;;
69985;SDS011;57328;52.054;5.294;2022-11-23T02:52:35;13.35;;;4.50;;
69985;SDS011;57328;52.054;5.294;2022-11-23T02:55:03;13.10;;;5.03;;
69985;SDS011;57328;52.054;5.294;2022-11-23T02:57:30;10.90;;;4.07;;
69985;SDS011;57328;52.054;5.294;2022-11-23T02:59:57;14.80;;;4.68;;
69985;SDS011;57328;52.054;5.294;2022-11-23T03:02:24;14.27;;;4.80;;
69985;SDS011;57328;52.054;5.294;2022-11-23T03:04:51;12.88;;;4.10;;
69985;SDS011;57328;52.054;5.294;2022-11-23T03:07:19;10.05;;;4.15;;
69985;SDS011;57328;52.054;5.294;2022-11-23T03:09:46;13.85;;;4.68;;
69985;SDS011;57328;52.054;5.294;2022-11-23T03:12:13;9.63;;;3.88;;
69985;SDS011;57328;52.054;5.294;2022-11-23T03:14:41;12.00;;;4.45;;
69985;SDS011;57328;52.054;5.294;2022-11-23T03:17:08;13.20;;;4.63;;
69985;SDS011;57328;52.054;5.294;2022-11-23T03:19:35;13.13;;;4.50;;
69985;SDS011;57328;52.054;5.294;2022-11-23T03:22:03;14.73;;;4.80;;
69985;SDS011;57328;52.054;5.294;2022-11-23T03:24:30;11.55;;;4.28;;
69985;SDS011;57328;52.054;5.294;2022-11-23T03:26:58;8.90;;;3.38;;
69985;SDS011;57328;52.054;5.294;2022-11-23T03:29:25;14.77;;;4.80;;
69985;SDS011;57328;52.054;5.294;2022-11-23T03:31:52;10.90;;;4.13;;
69985;SDS011;57328;52.054;5.294;2022-11-23T03:34:19;11.25;;;4.53;;
69985;SDS011;57328;52.054;5.294;2022-11-23T03:36:47;11.50;;;4.07;;
69985;SDS011;57328;52.054;5.294;2022-11-23T03:39:14;10.90;;;4.70;;
69985;SDS011;57328;52.054;5.294;2022-11-23T03:41:41;10.68;;;4.43;;
69985;SDS011;57328;52.054;5.294;2022-11-23T03:44:08;11.93;;;4.32;;
69985;SDS011;57328;52.054;5.294;2022-11-23T03:46:35;13.52;;;4.57;;
69985;SDS011;57328;52.054;5.294;2022-11-23T03:49:02;12.27;;;4.53;;
69985;SDS011;57328;52.054;5.294;2022-11-23T03:51:29;14.30;;;4.32;;
69985;SDS011;57328;52.054;5.294;2022-11-23T03:53:57;16.77;;;4.43;;
69985;SDS011;57328;52.054;5.294;2022-11-23T03:56:24;11.40;;;4.53;;
69985;SDS011;57328;52.054;5.294;2022-11-23T03:58:51;9.93;;;3.70;;
69985;SDS011;57328;52.054;5.294;2022-11-23T04:01:18;10.63;;;4.10;;
69985;SDS011;57328;52.054;5.294;2022-11-23T04:03:45;10.18;;;3.28;;
69985;SDS011;57328;52.054;5.294;2022-11-23T04:06:12;12.68;;;3.45;;
69985;SDS011;57328;52.054;5.294;2022-11-23T04:08:39;8.82;;;3.25;;
69985;SDS011;57328;52.054;5.294;2022-11-23T04:11:06;18.38;;;3.90;;
69985;SDS011;57328;52.054;5.294;2022-11-23T04:13:33;12.75;;;4.10;;
69985;SDS011;57328;52.054;5.294;2022-11-23T04:16:01;8.55;;;3.35;;
69985;SDS011;57328;52.054;5.294;2022-11-23T04:18:28;11.52;;;3.75;;
69985;SDS011;57328;52.054;5.294;2022-11-23T04:20:55;9.45;;;3.33;;
69985;SDS011;57328;52.054;5.294;2022-11-23T04:23:22;10.45;;;3.00;;
69985;SDS011;57328;52.054;5.294;2022-11-23T04:25:50;9.65;;;2.90;;
69985;SDS011;57328;52.054;5.294;2022-11-23T04:28:17;9.82;;;3.70;;
69985;SDS011;57328;52.054;5.294;2022-11-23T04:30:44;9.30;;;2.95;;
69985;SDS011;57328;52.054;5.294;2022-11-23T04:33:11;12.88;;;3.90;;
69985;SDS011;57328;52.054;5.294;2022-11-23T04:35:38;10.32;;;4.20;;
69985;SDS011;57328;52.054;5.294;2022-11-23T04:38:05;12.85;;;4.60;;
69985;SDS011;57328;52.054;5.294;2022-11-23T04:40:32;8.48;;;3.13;;
69985;SDS011;57328;52.054;5.294;2022-11-23T04:43:00;13.52;;;4.32;;
69985;SDS011;57328;52.054;5.294;2022-11-23T04:45:27;11.60;;;3.75;;
69985;SDS011;57328;52.054;5.294;2022-11-23T04:47:54;10.75;;;3.78;;
69985;SDS011;57328;52.054;5.294;2022-11-23T04:50:21;11.68;;;4.32;;
69985;SDS011;57328;52.054;5.294;2022-11-23T04:52:48;12.23;;;4.15;;
69985;SDS011;57328;52.054;5.294;2022-11-23T04:55:15;12.50;;;3.90;;
69985;SDS011;57328;52.054;5.294;2022-11-23T04:57:43;16.80;;;4.05;;
69985;SDS011;57328;52.054;5.294;2022-11-23T05:00:10;14.55;;;3.95;;
69985;SDS011;57328;52.054;5.294;2022-11-23T05:02:37;13.65;;;3.70;;
69985;SDS011;57328;52.054;5.294;2022-11-23T05:05:04;10.50;;;3.90;;
69985;SDS011;57328;52.054;5.294;2022-11-23T05:07:32;15.20;;;3.70;;
69985;SDS011;57328;52.054;5.294;2022-11-23T05:09:59;12.13;;;3.50;;
69985;SDS011;57328;52.054;5.294;2022-11-23T05:12:26;17.33;;;3.58;;
69985;SDS011;57328;52.054;5.294;2022-11-23T05:14:53;13.07;;;3.17;;
69985;SDS011;57328;52.054;5.294;2022-11-23T05:17:20;10.77;;;3.42;;
69985;SDS011;57328;52.054;5.294;2022-11-23T05:19:47;16.35;;;3.35;;
69985;SDS011;57328;52.054;5.294;2022-11-23T05:22:15;15.25;;;3.85;;
69985;SDS011;57328;52.054;5.294;2022-11-23T05:24:42;10.57;;;3.03;;
69985;SDS011;57328;52.054;5.294;2022-11-23T05:27:09;8.77;;;3.08;;
69985;SDS011;57328;52.054;5.294;2022-11-23T05:29:36;9.85;;;2.90;;
69985;SDS011;57328;52.054;5.294;2022-11-23T05:32:03;9.27;;;2.33;;
69985;SDS011;57328;52.054;5.294;2022-11-23T05:34:31;11.20;;;3.20;;
69985;SDS011;57328;52.054;5.294;2022-11-23T05:36:58;14.60;;;3.40;;
69985;SDS011;57328;52.054;5.294;2022-11-23T05:39:25;12.93;;;3.22;;
69985;SDS011;57328;52.054;5.294;2022-11-23T05:41:52;11.95;;;3.22;;
69985;SDS011;57328;52.054;5.294;2022-11-23T05:44:19;17.90;;;3.78;;
69985;SDS011;57328;52.054;5.294;2022-11-23T05:46:46;13.77;;;3.20;;
69985;SDS011;57328;52.054;5.294;2022-11-23T05:49:13;12.65;;;2.95;;
69985;SDS011;57328;52.054;5.294;2022-11-23T05:51:41;11.32;;;2.95;;
69985;SDS011;57328;52.054;5.294;2022-11-23T05:54:08;6.22;;;2.42;;
69985;SDS011;57328;52.054;5.294;2022-11-23T05:56:35;9.13;;;3.22;;
69985;SDS011;57328;52.054;5.294;2022-11-23T05:59:05;13.45;;;3.10;;
69985;SDS011;57328;52.054;5.294;2022-11-23T06:01:33;9.18;;;3.05;;
69985;SDS011;57328;52.054;5.294;2022-11-23T06:04:00;10.73;;;3.38;;
69985;SDS011;57328;52.054;5.294;2022-11-23T06:06:27;10.57;;;2.95;;
69985;SDS011;57328;52.054;5.294;2022-11-23T06:08:54;13.10;;;3.80;;
69985;SDS011;57328;52.054;5.294;2022-11-23T06:11:22;11.45;;;3.28;;
69985;SDS011;57328;52.054;5.294;2022-11-23T06:13:49;11.20;;;3.30;;
69985;SDS011;57328;52.054;5.294;2022-11-23T06:16:16;10.73;;;2.70;;
69985;SDS011;57328;52.054;5.294;2022-11-23T06:18:43;10.93;;;2.30;;
69985;SDS011;57328;52.054;5.294;2022-11-23T06:21:10;9.15;;;2.78;;
69985;SDS011;57328;52.054;5.294;2022-11-23T06:23:37;15.23;;;2.97;;
69985;SDS011;57328;52.054;5.294;2022-11-23T06:26:05;11.38;;;3.63;;
69985;SDS011;57328;52.054;5.294;2022-11-23T06:28:32;14.40;;;2.67;;
69985;SDS011;57328;52.054;5.294;2022-11-23T06:31:04;11.70;;;2.83;;
69985;SDS011;57328;52.054;5.294;2022-11-23T06:33:32;9.38;;;2.45;;
69985;SDS011;57328;52.054;5.294;2022-11-23T06:36:00;8.48;;;2.22;;
69985;SDS011;57328;52.054;5.294;2022-11-23T06:38:28;10.40;;;2.28;;
69985;SDS011;57328;52.054;5.294;2022-11-23T06:40:58;14.25;;;2.35;;
69985;SDS011;57328;52.054;5.294;2022-11-23T06:43:26;11.05;;;2.25;;
69985;SDS011;57328;52.054;5.294;2022-11-23T06:45:53;14.43;;;2.30;;
69985;SDS011;57328;52.054;5.294;2022-11-23T06:48:21;12.75;;;2.83;;
69985;SDS011;57328;52.054;5.294;2022-11-23T06:50:48;13.25;;;2.53;;
69985;SDS011;57328;52.054;5.294;2022-11-23T06:53:15;13.75;;;2.03;;
69985;SDS011;57328;52.054;5.294;2022-11-23T06:55:42;14.18;;;2.13;;
69985;SDS011;57328;52.054;5.294;2022-11-23T06:58:09;12.63;;;2.00;;
69985;SDS011;57328;52.054;5.294;2022-11-23T07:00:36;14.00;;;2.85;;
69985;SDS011;57328;52.054;5.294;2022-11-23T07:03:03;9.93;;;2.78;;
69985;SDS011;57328;52.054;5.294;2022-11-23T07:05:31;14.05;;;2.88;;
69985;SDS011;57328;52.054;5.294;2022-11-23T07:07:58;10.75;;;1.80;;
69985;SDS011;57328;52.054;5.294;2022-11-23T07:10:25;11.63;;;1.92;;
69985;SDS011;57328;52.054;5.294;2022-11-23T07:12:52;11.05;;;2.10;;
69985;SDS011;57328;52.054;5.294;2022-11-23T07:15:19;12.75;;;2.10;;
69985;SDS011;57328;52.054;5.294;2022-11-23T07:17:46;19.85;;;2.67;;
69985;SDS011;57328;52.054;5.294;2022-11-23T07:20:13;12.40;;;2.20;;
69985;SDS011;57328;52.054;5.294;2022-11-23T07:22:41;14.23;;;3.20;;
69985;SDS011;57328;52.054;5.294;2022-11-23T07:25:08;11.98;;;2.55;;
69985;SDS011;57328;52.054;5.294;2022-11-23T07:27:36;15.05;;;2.10;;
69985;SDS011;57328;52.054;5.294;2022-11-23T07:30:03;15.07;;;2.50;;
69985;SDS011;57328;52.054;5.294;2022-11-23T07:32:31;11.00;;;2.15;;
69985;SDS011;57328;52.054;5.294;2022-11-23T07:34:58;13.93;;;2.72;;
69985;SDS011;57328;52.054;5.294;2022-11-23T07:37:25;12.55;;;2.40;;
69985;SDS011;57328;52.054;5.294;2022-11-23T07:39:52;12.23;;;1.73;;
69985;SDS011;57328;52.054;5.294;2022-11-23T07:42:23;11.82;;;1.95;;
69985;SDS011;57328;52.054;5.294;2022-11-23T07:45:06;11.43;;;1.90;;
69985;SDS011;57328;52.054;5.294;2022-11-23T07:47:34;14.93;;;1.95;;
69985;SDS011;57328;52.054;5.294;2022-11-23T07:50:01;14.63;;;2.70;;
69985;SDS011;57328;52.054;5.294;2022-11-23T07:52:29;11.93;;;2.30;;
69985;SDS011;57328;52.054;5.294;2022-11-23T07:54:56;10.40;;;1.95;;
69985;SDS011;57328;52.054;5.294;2022-11-23T07:57:25;14.40;;;2.22;;
69985;SDS011;57328;52.054;5.294;2022-11-23T07:59:54;9.23;;;1.65;;
69985;SDS011;57328;52.054;5.294;2022-11-23T08:02:21;13.98;;;2.25;;
69985;SDS011;57328;52.054;5.294;2022-11-23T08:04:48;15.20;;;2.60;;
69985;SDS011;57328;52.054;5.294;2022-11-23T08:07:15;14.73;;;2.90;;
69985;SDS011;57328;52.054;5.294;2022-11-23T08:09:42;15.55;;;1.70;;
69985;SDS011;57328;52.054;5.294;2022-11-23T08:12:09;11.85;;;1.75;;
69985;SDS011;57328;52.054;5.294;2022-11-23T08:14:37;12.07;;;2.00;;
69985;SDS011;57328;52.054;5.294;2022-11-23T08:17:04;10.32;;;2.08;;
69985;SDS011;57328;52.054;5.294;2022-11-23T08:19:31;10.07;;;2.00;;
69985;SDS011;57328;52.054;5.294;2022-11-23T08:21:58;9.50;;;1.92;;
69985;SDS011;57328;52.054;5.294;2022-11-23T08:24:25;11.35;;;2.20;;
69985;SDS011;57328;52.054;5.294;2022-11-23T08:26:52;17.52;;;2.42;;
69985;SDS011;57328;52.054;5.294;2022-11-23T08:29:19;12.55;;;1.88;;
69985;SDS011;57328;52.054;5.294;2022-11-23T08:31:46;15.15;;;1.50;;
69985;SDS011;57328;52.054;5.294;2022-11-23T08:34:14;12.95;;;1.90;;
69985;SDS011;57328;52.054;5.294;2022-11-23T08:36:43;11.02;;;2.13;;
69985;SDS011;57328;52.054;5.294;2022-11-23T08:39:10;12.30;;;2.00;;
69985;SDS011;57328;52.054;5.294;2022-11-23T08:41:40;10.80;;;1.80;;
69985;SDS011;57328;52.054;5.294;2022-11-23T08:44:07;11.07;;;1.70;;
69985;SDS011;57328;52.054;5.294;2022-11-23T08:46:36;16.65;;;2.85;;
69985;SDS011;57328;52.054;5.294;2022-11-23T08:49:04;10.63;;;1.80;;
69985;SDS011;57328;52.054;5.294;2022-11-23T08:51:31;10.57;;;1.70;;
69985;SDS011;57328;52.054;5.294;2022-11-23T08:53:58;10.60;;;2.55;;
69985;SDS011;57328;52.054;5.294;2022-11-23T08:56:25;11.30;;;1.70;;
69985;SDS011;57328;52.054;5.294;2022-11-23T08:58:53;13.77;;;1.90;;
69985;SDS011;57328;52.054;5.294;2022-11-23T09:01:20;11.73;;;2.10;;
69985;SDS011;57328;52.054;5.294;2022-11-23T09:03:47;10.25;;;1.90;;
69985;SDS011;57328;52.054;5.294;2022-11-23T09:06:14;13.73;;;2.15;;
69985;SDS011;57328;52.054;5.294;2022-11-23T09:08:41;11.93;;;1.98;;
69985;SDS011;57328;52.054;5.294;2022-11-23T09:11:09;14.18;;;2.60;;
69985;SDS011;57328;52.054;5.294;2022-11-23T09:13:38;10.23;;;1.80;;
69985;SDS011;57328;52.054;5.294;2022-11-23T09:16:05;9.55;;;1.63;;
69985;SDS011;57328;52.054;5.294;2022-11-23T09:18:36;10.63;;;2.20;;
69985;SDS011;57328;52.054;5.294;2022-11-23T09:21:03;9.57;;;1.83;;
69985;SDS011;57328;52.054;5.294;2022-11-23T09:23:31;15.23;;;2.35;;
69985;SDS011;57328;52.054;5.294;2022-11-23T09:25:59;11.02;;;1.77;;
69985;SDS011;57328;52.054;5.294;2022-11-23T09:28:26;10.27;;;1.70;;
69985;SDS011;57328;52.054;5.294;2022-11-23T09:30:54;15.38;;;2.28;;
69985;SDS011;57328;52.054;5.294;2022-11-23T09:33:21;11.70;;;1.75;;
69985;SDS011;57328;52.054;5.294;2022-11-23T09:35:58;9.60;;;1.30;;
69985;SDS011;57328;52.054;5.294;2022-11-23T09:38:26;10.45;;;1.50;;
69985;SDS011;57328;52.054;5.294;2022-11-23T09:44:07;10.13;;;1.52;;
69985;SDS011;57328;52.054;5.294;2022-11-23T09:46:48;7.90;;;1.40;;
69985;SDS011;57328;52.054;5.294;2022-11-23T09:49:21;12.15;;;1.83;;
69985;SDS011;57328;52.054;5.294;2022-11-23T09:51:54;11.95;;;1.92;;
69985;SDS011;57328;52.054;5.294;2022-11-23T09:54:24;12.35;;;1.88;;
69985;SDS011;57328;52.054;5.294;2022-11-23T09:56:52;11.85;;;1.70;;
69985;SDS011;57328;52.054;5.294;2022-11-23T09:59:30;11.15;;;1.92;;
69985;SDS011;57328;52.054;5.294;2022-11-23T10:01:59;12.80;;;2.22;;
69985;SDS011;57328;52.054;5.294;2022-11-23T10:04:31;10.05;;;1.48;;
69985;SDS011;57328;52.054;5.294;2022-11-23T10:09:52;16.63;;;1.95;;
69985;SDS011;57328;52.054;5.294;2022-11-23T10:15:09;15.10;;;1.98;;
69985;SDS011;57328;52.054;5.294;2022-11-23T10:22:51;15.07;;;2.70;;
69985;SDS011;57328;52.054;5.294;2022-11-23T10:25:23;11.55;;;2.25;;
69985;SDS011;57328;52.054;5.294;2022-11-23T10:27:52;13.52;;;2.00;;
69985;SDS011;57328;52.054;5.294;2022-11-23T10:30:20;11.13;;;2.20;;
69985;SDS011;57328;52.054;5.294;2022-11-23T10:37:51;12.35;;;1.92;;
69985;SDS011;57328;52.054;5.294;2022-11-23T10:40:25;9.93;;;1.55;;
69985;SDS011;57328;52.054;5.294;2022-11-23T10:42:55;6.18;;;1.50;;
69985;SDS011;57328;52.054;5.294;2022-11-23T10:45:25;10.23;;;1.52;;
69985;SDS011;57328;52.054;5.294;2022-11-23T10:52:58;10.93;;;1.63;;
69985;SDS011;57328;52.054;5.294;2022-11-23T10:57:53;11.98;;;2.38;;
69985;SDS011;57328;52.054;5.294;2022-11-23T11:00:21;9.13;;;1.50;;
69985;SDS011;57328;52.054;5.294;2022-11-23T11:02:55;13.02;;;2.42;;
69985;SDS011;57328;52.054;5.294;2022-11-23T11:05:26;14.25;;;2.13;;
69985;SDS011;57328;52.054;5.294;2022-11-23T11:08:18;8.48;;;1.35;;
69985;SDS011;57328;52.054;5.294;2022-11-23T11:10:47;9.98;;;1.58;;
69985;SDS011;57328;52.054;5.294;2022-11-23T11:15:49;7.75;;;1.58;;
69985;SDS011;57328;52.054;5.294;2022-11-23T11:18:17;9.43;;;1.70;;
69985;SDS011;57328;52.054;5.294;2022-11-23T11:20:45;10.98;;;1.75;;
69985;SDS011;57328;52.054;5.294;2022-11-23T11:23:16;8.75;;;1.50;;
69985;SDS011;57328;52.054;5.294;2022-11-23T11:25:43;9.77;;;1.30;;
69985;SDS011;57328;52.054;5.294;2022-11-23T11:28:18;10.38;;;1.55;;
69985;SDS011;57328;52.054;5.294;2022-11-23T11:30:51;8.20;;;1.75;;
69985;SDS011;57328;52.054;5.294;2022-11-23T11:33:22;14.60;;;1.73;;
69985;SDS011;57328;52.054;5.294;2022-11-23T11:35:58;11.35;;;1.70;;
69985;SDS011;57328;52.054;5.294;2022-11-23T11:38:29;8.13;;;1.27;;
69985;SDS011;57328;52.054;5.294;2022-11-23T11:40:59;9.00;;;1.42;;
69985;SDS011;57328;52.054;5.294;2022-11-23T11:43:33;10.43;;;1.40;;
69985;SDS011;57328;52.054;5.294;2022-11-23T11:46:15;8.15;;;1.20;;
69985;SDS011;57328;52.054;5.294;2022-11-23T11:48:58;8.45;;;1.30;;
69985;SDS011;57328;52.054;5.294;2022-11-23T11:51:52;7.25;;;1.17;;
69985;SDS011;57328;52.054;5.294;2022-11-23T11:54:19;8.88;;;1.40;;
69985;SDS011;57328;52.054;5.294;2022-11-23T11:56:49;5.50;;;1.33;;
69985;SDS011;57328;52.054;5.294;2022-11-23T11:59:27;8.70;;;1.40;;
69985;SDS011;57328;52.054;5.294;2022-11-23T12:01:56;6.25;;;1.15;;
69985;SDS011;57328;52.054;5.294;2022-11-23T12:04:42;10.05;;;1.58;;
69985;SDS011;57328;52.054;5.294;2022-11-23T12:07:12;8.10;;;1.02;;
69985;SDS011;57328;52.054;5.294;2022-11-23T12:09:41;7.82;;;1.15;;
69985;SDS011;57328;52.054;5.294;2022-11-23T12:12:12;6.60;;;1.60;;
69985;SDS011;57328;52.054;5.294;2022-11-23T12:14:41;7.68;;;1.20;;
69985;SDS011;57328;52.054;5.294;2022-11-23T12:17:11;10.45;;;1.45;;
69985;SDS011;57328;52.054;5.294;2022-11-23T12:23:15;5.25;;;1.13;;
69985;SDS011;57328;52.054;5.294;2022-11-23T12:30:34;4.07;;;1.27;;
69985;SDS011;57328;52.054;5.294;2022-11-23T12:40:33;5.57;;;1.05;;
69985;SDS011;57328;52.054;5.294;2022-11-23T12:51:18;5.55;;;1.23;;
69985;SDS011;57328;52.054;5.294;2022-11-23T12:53:53;4.80;;;0.90;;
69985;SDS011;57328;52.054;5.294;2022-11-23T12:58:52;7.75;;;1.27;;
69985;SDS011;57328;52.054;5.294;2022-11-23T13:01:29;7.22;;;1.10;;
69985;SDS011;57328;52.054;5.294;2022-11-23T13:06:50;6.85;;;1.40;;
69985;SDS011;57328;52.054;5.294;2022-11-23T13:09:47;8.80;;;1.63;;
69985;SDS011;57328;52.054;5.294;2022-11-23T13:22:40;9.95;;;1.20;;
69985;SDS011;57328;52.054;5.294;2022-11-23T13:27:58;7.22;;;1.42;;
69985;SDS011;57328;52.054;5.294;2022-11-23T13:30:29;5.90;;;0.90;;
69985;SDS011;57328;52.054;5.294;2022-11-23T13:35:53;6.60;;;1.40;;
69985;SDS011;57328;52.054;5.294;2022-11-23T13:38:25;8.07;;;1.10;;
69985;SDS011;57328;52.054;5.294;2022-11-23T13:40:52;3.97;;;0.90;;
69985;SDS011;57328;52.054;5.294;2022-11-23T13:43:21;6.57;;;1.38;;
69985;SDS011;57328;52.054;5.294;2022-11-23T13:48:42;8.27;;;0.88;;
69985;SDS011;57328;52.054;5.294;2022-11-23T13:53:59;5.05;;;0.88;;
69985;SDS011;57328;52.054;5.294;2022-11-23T13:56:35;1.48;;;0.60;;
69985;SDS011;57328;52.054;5.294;2022-11-23T14:04:20;5.95;;;1.23;;
69985;SDS011;57328;52.054;5.294;2022-11-23T14:06:48;3.10;;;1.08;;
69985;SDS011;57328;52.054;5.294;2022-11-23T14:09:27;4.55;;;0.75;;
69985;SDS011;57328;52.054;5.294;2022-11-23T14:12:12;5.07;;;1.05;;
69985;SDS011;57328;52.054;5.294;2022-11-23T14:14:55;5.28;;;1.55;;
69985;SDS011;57328;52.054;5.294;2022-11-23T14:28:22;5.22;;;1.20;;
69985;SDS011;57328;52.054;5.294;2022-11-23T14:31:00;6.88;;;1.33;;
69985;SDS011;57328;52.054;5.294;2022-11-23T14:41:57;7.22;;;1.17;;
69985;SDS011;57328;52.054;5.294;2022-11-23T14:44:26;5.55;;;1.17;;
69985;SDS011;57328;52.054;5.294;2022-11-23T14:47:03;3.65;;;1.02;;
69985;SDS011;57328;52.054;5.294;2022-11-23T14:49:30;5.05;;;0.98;;
69985;SDS011;57328;52.054;5.294;2022-11-23T14:51:58;6.03;;;1.00;;
69985;SDS011;57328;52.054;5.294;2022-11-23T14:54:26;9.05;;;1.90;;
69985;SDS011;57328;52.054;5.294;2022-11-23T14:56:56;10.15;;;2.47;;
69985;SDS011;57328;52.054;5.294;2022-11-23T14:59:28;10.25;;;2.05;;
69985;SDS011;57328;52.054;5.294;2022-11-23T15:01:58;9.93;;;2.30;;
69985;SDS011;57328;52.054;5.294;2022-11-23T15:04:29;6.88;;;1.17;;
69985;SDS011;57328;52.054;5.294;2022-11-23T15:07:23;7.47;;;1.33;;
69985;SDS011;57328;52.054;5.294;2022-11-23T15:09:49;7.10;;;1.42;;
69985;SDS011;57328;52.054;5.294;2022-11-23T15:14:48;8.40;;;1.80;;
69985;SDS011;57328;52.054;5.294;2022-11-23T15:17:17;6.63;;;1.30;;
69985;SDS011;57328;52.054;5.294;2022-11-23T15:19:57;5.30;;;1.10;;
69985;SDS011;57328;52.054;5.294;2022-11-23T15:22:25;2.97;;;0.80;;
69985;SDS011;57328;52.054;5.294;2022-11-23T15:24:53;8.13;;;1.40;;
69985;SDS011;57328;52.054;5.294;2022-11-23T15:27:24;8.00;;;1.42;;
69985;SDS011;57328;52.054;5.294;2022-11-23T15:29:56;7.40;;;1.52;;
69985;SDS011;57328;52.054;5.294;2022-11-23T15:34:58;4.93;;;1.10;;
69985;SDS011;57328;52.054;5.294;2022-11-23T15:37:26;7.00;;;1.52;;
69985;SDS011;57328;52.054;5.294;2022-11-23T15:39:54;7.15;;;1.70;;
69985;SDS011;57328;52.054;5.294;2022-11-23T15:42:22;5.10;;;1.23;;
69985;SDS011;57328;52.054;5.294;2022-11-23T15:44:50;5.70;;;1.48;;
69985;SDS011;57328;52.054;5.294;2022-11-23T15:52:39;9.60;;;2.30;;
69985;SDS011;57328;52.054;5.294;2022-11-23T15:55:11;8.68;;;2.22;;
69985;SDS011;57328;52.054;5.294;2022-11-23T15:57:40;8.18;;;1.90;;
69985;SDS011;57328;52.054;5.294;2022-11-23T16:00:17;5.97;;;1.38;;
69985;SDS011;57328;52.054;5.294;2022-11-23T16:02:48;5.18;;;1.80;;
69985;SDS011;57328;52.054;5.294;2022-11-23T16:10:36;9.85;;;2.03;;
69985;SDS011;57328;52.054;5.294;2022-11-23T16:13:32;5.03;;;1.60;;
69985;SDS011;57328;52.054;5.294;2022-11-23T16:15:59;3.67;;;1.58;;
69985;SDS011;57328;52.054;5.294;2022-11-23T16:18:29;5.00;;;1.98;;
69985;SDS011;57328;52.054;5.294;2022-11-23T16:21:00;8.02;;;2.10;;
69985;SDS011;57328;52.054;5.294;2022-11-23T16:23:29;7.28;;;2.25;;
69985;SDS011;57328;52.054;5.294;2022-11-23T16:26:03;5.55;;;1.60;;
69985;SDS011;57328;52.054;5.294;2022-11-23T16:28:35;3.70;;;1.50;;
69985;SDS011;57328;52.054;5.294;2022-11-23T16:31:02;5.75;;;1.98;;
69985;SDS011;57328;52.054;5.294;2022-11-23T16:33:30;10.05;;;2.60;;
69985;SDS011;57328;52.054;5.294;2022-11-23T16:35:57;5.82;;;1.58;;
69985;SDS011;57328;52.054;5.294;2022-11-23T16:38:24;6.60;;;1.63;;
69985;SDS011;57328;52.054;5.294;2022-11-23T16:40:51;6.78;;;1.80;;
69985;SDS011;57328;52.054;5.294;2022-11-23T16:43:19;7.05;;;1.80;;
69985;SDS011;57328;52.054;5.294;2022-11-23T16:45:46;6.18;;;1.95;;
69985;SDS011;57328;52.054;5.294;2022-11-23T16:50:55;6.18;;;2.35;;
69985;SDS011;57328;52.054;5.294;2022-11-23T16:53:23;8.55;;;2.78;;
69985;SDS011;57328;52.054;5.294;2022-11-23T16:56:16;6.93;;;2.13;;
69985;SDS011;57328;52.054;5.294;2022-11-23T16:58:44;8.60;;;2.50;;
69985;SDS011;57328;52.054;5.294;2022-11-23T17:01:31;8.82;;;2.50;;